sensor_id;sensor_type;location;lat;lon;timestamp;P1;durP1;ratioP1;P2;durP2;ratioP2
24153;SDS011;12312;53.362;-1.518;2022-10-16T00:00:36;11.82;;;1.70;;
24153;SDS011;12312;53.362;-1.518;2022-10-16T00:03:04;12.80;;;1.30;;
24153;SDS011;12312;53.362;-1.518;2022-10-16T00:05:30;11.93;;;1.65;;
24153;SDS011;12312;53.362;-1.518;2022-10-16T00:07:56;7.35;;;1.33;;
24153;SDS011;12312;53.362;-1.518;2022-10-16T00:10:23;9.65;;;1.25;;
24153;SDS011;12312;53.362;-1.518;2022-10-16T00:12:49;10.10;;;1.63;;
24153;SDS011;12312;53.362;-1.518;2022-10-16T00:15:15;6.85;;;1.30;;
24153;SDS011;12312;53.362;-1.518;2022-10-16T00:17:41;5.38;;;0.95;;
24153;SDS011;12312;53.362;-1.518;2022-10-16T00:20:07;11.27;;;1.50;;
24153;SDS011;12312;53.362;-1.518;2022-10-16T00:22:33;11.18;;;1.30;;
24153;SDS011;12312;53.362;-1.518;2022-10-16T00:24:58;9.55;;;1.60;;
24153;SDS011;12312;53.362;-1.518;2022-10-16T00:27:24;15.02;;;1.90;;
24153;SDS011;12312;53.362;-1.518;2022-10-16T00:29:50;13.50;;;1.92;;
24153;SDS011;12312;53.362;-1.518;2022-10-16T00:32:17;12.50;;;2.00;;
24153;SDS011;12312;53.362;-1.518;2022-10-16T00:34:46;10.40;;;1.90;;
24153;SDS011;12312;53.362;-1.518;2022-10-16T00:37:12;13.90;;;1.88;;
24153;SDS011;12312;53.362;-1.518;2022-10-16T00:39:38;11.73;;;1.35;;
24153;SDS011;12312;53.362;-1.518;2022-10-16T00:42:04;12.68;;;1.88;;
24153;SDS011;12312;53.362;-1.518;2022-10-16T00:47:36;10.15;;;1.52;;
24153;SDS011;12312;53.362;-1.518;2022-10-16T00:50:16;8.00;;;1.80;;
24153;SDS011;12312;53.362;-1.518;2022-10-16T00:52:48;9.18;;;1.65;;
24153;SDS011;12312;53.362;-1.518;2022-10-16T00:55:15;12.40;;;2.13;;
24153;SDS011;12312;53.362;-1.518;2022-10-16T00:57:41;9.10;;;1.73;;
24153;SDS011;12312;53.362;-1.518;2022-10-16T01:00:09;8.88;;;1.48;;
24153;SDS011;12312;53.362;-1.518;2022-10-16T01:02:36;15.75;;;2.00;;
24153;SDS011;12312;53.362;-1.518;2022-10-16T01:05:02;10.10;;;1.73;;
24153;SDS011;12312;53.362;-1.518;2022-10-16T01:10:38;17.23;;;2.40;;
24153;SDS011;12312;53.362;-1.518;2022-10-16T01:13:12;12.15;;;1.88;;
24153;SDS011;12312;53.362;-1.518;2022-10-16T01:18:44;11.60;;;1.45;;
24153;SDS011;12312;53.362;-1.518;2022-10-16T01:37:40;16.42;;;1.60;;
24153;SDS011;12312;53.362;-1.518;2022-10-16T01:40:30;15.32;;;2.20;;
24153;SDS011;12312;53.362;-1.518;2022-10-16T01:43:00;6.90;;;1.70;;
24153;SDS011;12312;53.362;-1.518;2022-10-16T01:45:30;7.05;;;1.45;;
24153;SDS011;12312;53.362;-1.518;2022-10-16T01:47:58;5.20;;;1.25;;
24153;SDS011;12312;53.362;-1.518;2022-10-16T01:50:29;9.57;;;1.55;;
24153;SDS011;12312;53.362;-1.518;2022-10-16T01:52:59;12.55;;;2.25;;
24153;SDS011;12312;53.362;-1.518;2022-10-16T01:55:37;7.88;;;1.70;;
24153;SDS011;12312;53.362;-1.518;2022-10-16T01:58:10;8.00;;;1.75;;
24153;SDS011;12312;53.362;-1.518;2022-10-16T02:00:38;13.98;;;1.85;;
24153;SDS011;12312;53.362;-1.518;2022-10-16T02:03:12;10.50;;;2.28;;
24153;SDS011;12312;53.362;-1.518;2022-10-16T02:05:41;6.55;;;1.42;;
24153;SDS011;12312;53.362;-1.518;2022-10-16T02:08:23;8.10;;;1.38;;
24153;SDS011;12312;53.362;-1.518;2022-10-16T02:10:53;8.27;;;1.83;;
24153;SDS011;12312;53.362;-1.518;2022-10-16T02:13:22;10.93;;;1.38;;
24153;SDS011;12312;53.362;-1.518;2022-10-16T02:15:49;9.10;;;1.38;;
24153;SDS011;12312;53.362;-1.518;2022-10-16T02:18:15;6.53;;;1.35;;
24153;SDS011;12312;53.362;-1.518;2022-10-16T02:20:51;5.70;;;1.17;;
24153;SDS011;12312;53.362;-1.518;2022-10-16T02:23:24;6.13;;;1.10;;
24153;SDS011;12312;53.362;-1.518;2022-10-16T02:26:00;8.60;;;1.05;;
24153;SDS011;12312;53.362;-1.518;2022-10-16T02:29:04;7.60;;;1.02;;
24153;SDS011;12312;53.362;-1.518;2022-10-16T02:31:27;6.95;;;2.40;;
24153;SDS011;12312;53.362;-1.518;2022-10-16T02:33:57;5.82;;;1.20;;
24153;SDS011;12312;53.362;-1.518;2022-10-16T02:36:26;6.07;;;1.20;;
24153;SDS011;12312;53.362;-1.518;2022-10-16T02:38:53;4.72;;;0.95;;
24153;SDS011;12312;53.362;-1.518;2022-10-16T02:41:21;7.53;;;1.42;;
24153;SDS011;12312;53.362;-1.518;2022-10-16T02:43:48;6.05;;;1.27;;
24153;SDS011;12312;53.362;-1.518;2022-10-16T02:46:15;8.40;;;1.40;;
24153;SDS011;12312;53.362;-1.518;2022-10-16T02:48:42;5.25;;;1.10;;
24153;SDS011;12312;53.362;-1.518;2022-10-16T02:51:07;7.80;;;1.23;;
24153;SDS011;12312;53.362;-1.518;2022-10-16T02:53:33;8.45;;;1.30;;
24153;SDS011;12312;53.362;-1.518;2022-10-16T02:55:59;8.38;;;1.15;;
24153;SDS011;12312;53.362;-1.518;2022-10-16T02:58:24;7.68;;;1.40;;
24153;SDS011;12312;53.362;-1.518;2022-10-16T03:00:52;5.85;;;1.00;;
24153;SDS011;12312;53.362;-1.518;2022-10-16T03:03:18;9.43;;;1.17;;
24153;SDS011;12312;53.362;-1.518;2022-10-16T03:05:44;5.80;;;0.90;;
24153;SDS011;12312;53.362;-1.518;2022-10-16T03:08:13;9.70;;;1.33;;
24153;SDS011;12312;53.362;-1.518;2022-10-16T03:10:41;9.93;;;1.23;;
24153;SDS011;12312;53.362;-1.518;2022-10-16T03:13:06;7.20;;;1.25;;
24153;SDS011;12312;53.362;-1.518;2022-10-16T03:15:32;5.80;;;1.38;;
24153;SDS011;12312;53.362;-1.518;2022-10-16T03:17:58;12.43;;;1.42;;
24153;SDS011;12312;53.362;-1.518;2022-10-16T03:20:25;6.05;;;1.10;;
24153;SDS011;12312;53.362;-1.518;2022-10-16T03:22:52;4.45;;;1.30;;
24153;SDS011;12312;53.362;-1.518;2022-10-16T03:25:17;9.27;;;1.20;;
24153;SDS011;12312;53.362;-1.518;2022-10-16T03:27:45;9.27;;;1.42;;
24153;SDS011;12312;53.362;-1.518;2022-10-16T03:30:11;7.07;;;1.30;;
24153;SDS011;12312;53.362;-1.518;2022-10-16T03:32:38;4.10;;;0.85;;
24153;SDS011;12312;53.362;-1.518;2022-10-16T03:35:04;7.93;;;1.10;;
24153;SDS011;12312;53.362;-1.518;2022-10-16T03:37:31;10.60;;;2.00;;
24153;SDS011;12312;53.362;-1.518;2022-10-16T03:39:57;5.45;;;1.70;;
24153;SDS011;12312;53.362;-1.518;2022-10-16T03:42:24;4.35;;;1.00;;
24153;SDS011;12312;53.362;-1.518;2022-10-16T03:44:50;7.03;;;1.55;;
24153;SDS011;12312;53.362;-1.518;2022-10-16T03:47:16;9.50;;;1.40;;
24153;SDS011;12312;53.362;-1.518;2022-10-16T03:49:46;5.20;;;0.93;;
24153;SDS011;12312;53.362;-1.518;2022-10-16T03:52:11;6.95;;;1.52;;
24153;SDS011;12312;53.362;-1.518;2022-10-16T03:54:37;10.27;;;2.13;;
24153;SDS011;12312;53.362;-1.518;2022-10-16T03:57:04;6.95;;;2.00;;
24153;SDS011;12312;53.362;-1.518;2022-10-16T03:59:30;11.52;;;2.55;;
24153;SDS011;12312;53.362;-1.518;2022-10-16T04:01:57;11.80;;;2.00;;
24153;SDS011;12312;53.362;-1.518;2022-10-16T04:04:24;11.43;;;1.85;;
24153;SDS011;12312;53.362;-1.518;2022-10-16T04:06:51;7.22;;;1.17;;
24153;SDS011;12312;53.362;-1.518;2022-10-16T04:09:18;7.20;;;1.17;;
24153;SDS011;12312;53.362;-1.518;2022-10-16T04:11:45;7.35;;;1.23;;
24153;SDS011;12312;53.362;-1.518;2022-10-16T04:14:11;8.73;;;2.10;;
24153;SDS011;12312;53.362;-1.518;2022-10-16T04:16:36;6.22;;;1.13;;
24153;SDS011;12312;53.362;-1.518;2022-10-16T04:19:02;7.15;;;1.30;;
24153;SDS011;12312;53.362;-1.518;2022-10-16T04:21:28;8.43;;;1.20;;
24153;SDS011;12312;53.362;-1.518;2022-10-16T04:23:54;7.03;;;1.23;;
24153;SDS011;12312;53.362;-1.518;2022-10-16T04:26:21;7.20;;;1.20;;
24153;SDS011;12312;53.362;-1.518;2022-10-16T04:28:47;8.27;;;1.13;;
24153;SDS011;12312;53.362;-1.518;2022-10-16T04:31:12;5.88;;;1.38;;
24153;SDS011;12312;53.362;-1.518;2022-10-16T04:33:38;9.50;;;1.00;;
24153;SDS011;12312;53.362;-1.518;2022-10-16T04:36:03;6.78;;;1.70;;
24153;SDS011;12312;53.362;-1.518;2022-10-16T04:38:29;4.18;;;1.08;;
24153;SDS011;12312;53.362;-1.518;2022-10-16T04:40:55;6.22;;;1.25;;
24153;SDS011;12312;53.362;-1.518;2022-10-16T04:43:21;8.27;;;1.60;;
24153;SDS011;12312;53.362;-1.518;2022-10-16T04:45:47;7.95;;;1.40;;
24153;SDS011;12312;53.362;-1.518;2022-10-16T04:48:16;5.80;;;1.10;;
24153;SDS011;12312;53.362;-1.518;2022-10-16T04:50:41;5.20;;;1.10;;
24153;SDS011;12312;53.362;-1.518;2022-10-16T04:53:07;5.82;;;1.27;;
24153;SDS011;12312;53.362;-1.518;2022-10-16T04:55:33;9.90;;;1.38;;
24153;SDS011;12312;53.362;-1.518;2022-10-16T04:57:59;9.30;;;1.75;;
24153;SDS011;12312;53.362;-1.518;2022-10-16T05:00:25;7.22;;;1.75;;
24153;SDS011;12312;53.362;-1.518;2022-10-16T05:02:53;7.85;;;1.45;;
24153;SDS011;12312;53.362;-1.518;2022-10-16T05:05:19;5.88;;;1.20;;
24153;SDS011;12312;53.362;-1.518;2022-10-16T05:07:45;6.43;;;1.02;;
24153;SDS011;12312;53.362;-1.518;2022-10-16T05:10:13;4.80;;;1.02;;
24153;SDS011;12312;53.362;-1.518;2022-10-16T05:12:39;1.70;;;0.80;;
24153;SDS011;12312;53.362;-1.518;2022-10-16T05:15:05;2.13;;;0.98;;
24153;SDS011;12312;53.362;-1.518;2022-10-16T05:17:31;5.15;;;0.95;;
24153;SDS011;12312;53.362;-1.518;2022-10-16T05:19:57;4.68;;;1.00;;
24153;SDS011;12312;53.362;-1.518;2022-10-16T05:22:22;3.88;;;1.30;;
24153;SDS011;12312;53.362;-1.518;2022-10-16T05:24:49;5.72;;;1.10;;
24153;SDS011;12312;53.362;-1.518;2022-10-16T05:27:15;4.72;;;1.02;;
24153;SDS011;12312;53.362;-1.518;2022-10-16T05:29:47;5.75;;;1.10;;
24153;SDS011;12312;53.362;-1.518;2022-10-16T05:32:15;3.63;;;1.02;;
24153;SDS011;12312;53.362;-1.518;2022-10-16T05:34:42;7.90;;;1.00;;
24153;SDS011;12312;53.362;-1.518;2022-10-16T05:37:09;5.68;;;1.42;;
24153;SDS011;12312;53.362;-1.518;2022-10-16T05:39:36;5.85;;;0.93;;
24153;SDS011;12312;53.362;-1.518;2022-10-16T05:42:03;7.03;;;1.00;;
24153;SDS011;12312;53.362;-1.518;2022-10-16T05:44:29;6.03;;;1.00;;
24153;SDS011;12312;53.362;-1.518;2022-10-16T05:46:55;3.58;;;1.00;;
24153;SDS011;12312;53.362;-1.518;2022-10-16T05:49:21;5.00;;;0.93;;
24153;SDS011;12312;53.362;-1.518;2022-10-16T05:51:47;4.43;;;0.98;;
24153;SDS011;12312;53.362;-1.518;2022-10-16T05:54:14;10.20;;;1.30;;
24153;SDS011;12312;53.362;-1.518;2022-10-16T05:56:40;3.13;;;1.08;;
24153;SDS011;12312;53.362;-1.518;2022-10-16T05:59:32;4.72;;;0.85;;
24153;SDS011;12312;53.362;-1.518;2022-10-16T06:01:58;4.97;;;1.15;;
24153;SDS011;12312;53.362;-1.518;2022-10-16T06:04:28;5.22;;;0.90;;
24153;SDS011;12312;53.362;-1.518;2022-10-16T06:06:53;6.50;;;1.20;;
24153;SDS011;12312;53.362;-1.518;2022-10-16T06:09:20;7.63;;;1.27;;
24153;SDS011;12312;53.362;-1.518;2022-10-16T06:11:46;4.18;;;0.80;;
24153;SDS011;12312;53.362;-1.518;2022-10-16T06:14:12;4.07;;;0.90;;
24153;SDS011;12312;53.362;-1.518;2022-10-16T06:16:38;7.18;;;1.27;;
24153;SDS011;12312;53.362;-1.518;2022-10-16T06:19:03;9.20;;;1.00;;
24153;SDS011;12312;53.362;-1.518;2022-10-16T06:21:31;4.40;;;1.20;;
24153;SDS011;12312;53.362;-1.518;2022-10-16T06:23:57;7.10;;;1.50;;
24153;SDS011;12312;53.362;-1.518;2022-10-16T06:26:25;5.60;;;1.08;;
24153;SDS011;12312;53.362;-1.518;2022-10-16T06:28:53;3.92;;;1.05;;
24153;SDS011;12312;53.362;-1.518;2022-10-16T06:31:21;5.13;;;0.98;;
24153;SDS011;12312;53.362;-1.518;2022-10-16T06:33:51;4.15;;;0.70;;
24153;SDS011;12312;53.362;-1.518;2022-10-16T06:36:17;5.28;;;1.20;;
24153;SDS011;12312;53.362;-1.518;2022-10-16T06:38:43;5.55;;;1.25;;
24153;SDS011;12312;53.362;-1.518;2022-10-16T06:41:14;4.95;;;1.15;;
24153;SDS011;12312;53.362;-1.518;2022-10-16T06:43:45;7.85;;;1.55;;
24153;SDS011;12312;53.362;-1.518;2022-10-16T06:46:15;5.43;;;1.08;;
24153;SDS011;12312;53.362;-1.518;2022-10-16T06:48:44;4.43;;;1.00;;
24153;SDS011;12312;53.362;-1.518;2022-10-16T06:51:18;6.18;;;1.35;;
24153;SDS011;12312;53.362;-1.518;2022-10-16T06:53:54;5.32;;;1.30;;
24153;SDS011;12312;53.362;-1.518;2022-10-16T06:56:42;2.67;;;1.10;;
24153;SDS011;12312;53.362;-1.518;2022-10-16T06:59:08;7.25;;;1.42;;
24153;SDS011;12312;53.362;-1.518;2022-10-16T07:01:34;8.45;;;1.45;;
24153;SDS011;12312;53.362;-1.518;2022-10-16T07:04:00;6.03;;;1.42;;
24153;SDS011;12312;53.362;-1.518;2022-10-16T07:06:29;5.85;;;1.13;;
24153;SDS011;12312;53.362;-1.518;2022-10-16T07:08:57;5.40;;;1.25;;
24153;SDS011;12312;53.362;-1.518;2022-10-16T07:11:23;7.05;;;1.35;;
24153;SDS011;12312;53.362;-1.518;2022-10-16T07:13:50;4.93;;;1.05;;
24153;SDS011;12312;53.362;-1.518;2022-10-16T07:16:23;8.45;;;1.20;;
24153;SDS011;12312;53.362;-1.518;2022-10-16T07:18:53;7.50;;;1.08;;
24153;SDS011;12312;53.362;-1.518;2022-10-16T07:21:23;10.27;;;1.30;;
24153;SDS011;12312;53.362;-1.518;2022-10-16T07:23:51;5.88;;;1.00;;
24153;SDS011;12312;53.362;-1.518;2022-10-16T07:26:17;9.00;;;1.20;;
24153;SDS011;12312;53.362;-1.518;2022-10-16T07:28:43;4.93;;;1.40;;
24153;SDS011;12312;53.362;-1.518;2022-10-16T07:31:11;7.43;;;2.10;;
24153;SDS011;12312;53.362;-1.518;2022-10-16T07:33:38;4.60;;;1.00;;
24153;SDS011;12312;53.362;-1.518;2022-10-16T07:36:07;6.47;;;0.95;;
24153;SDS011;12312;53.362;-1.518;2022-10-16T07:38:33;6.47;;;1.13;;
24153;SDS011;12312;53.362;-1.518;2022-10-16T07:41:03;5.63;;;0.88;;
24153;SDS011;12312;53.362;-1.518;2022-10-16T07:43:32;8.32;;;1.10;;
24153;SDS011;12312;53.362;-1.518;2022-10-16T07:45:59;6.38;;;1.23;;
24153;SDS011;12312;53.362;-1.518;2022-10-16T07:48:27;4.90;;;1.13;;
24153;SDS011;12312;53.362;-1.518;2022-10-16T07:51:00;7.40;;;1.10;;
24153;SDS011;12312;53.362;-1.518;2022-10-16T07:53:27;5.30;;;1.23;;
24153;SDS011;12312;53.362;-1.518;2022-10-16T07:56:00;10.30;;;1.27;;
24153;SDS011;12312;53.362;-1.518;2022-10-16T07:58:28;4.45;;;1.10;;
24153;SDS011;12312;53.362;-1.518;2022-10-16T08:00:54;6.45;;;1.60;;
24153;SDS011;12312;53.362;-1.518;2022-10-16T08:03:21;5.55;;;2.70;;
24153;SDS011;12312;53.362;-1.518;2022-10-16T08:05:47;6.55;;;1.63;;
24153;SDS011;12312;53.362;-1.518;2022-10-16T08:08:13;8.57;;;1.58;;
24153;SDS011;12312;53.362;-1.518;2022-10-16T08:10:41;14.05;;;1.60;;
24153;SDS011;12312;53.362;-1.518;2022-10-16T08:13:07;9.48;;;1.83;;
24153;SDS011;12312;53.362;-1.518;2022-10-16T08:15:33;9.48;;;1.58;;
24153;SDS011;12312;53.362;-1.518;2022-10-16T08:18:02;6.50;;;1.10;;
24153;SDS011;12312;53.362;-1.518;2022-10-16T08:20:30;10.23;;;1.42;;
24153;SDS011;12312;53.362;-1.518;2022-10-16T08:22:56;4.35;;;1.40;;
24153;SDS011;12312;53.362;-1.518;2022-10-16T08:25:22;6.75;;;1.10;;
24153;SDS011;12312;53.362;-1.518;2022-10-16T08:27:48;5.32;;;1.10;;
24153;SDS011;12312;53.362;-1.518;2022-10-16T08:30:16;5.80;;;1.13;;
24153;SDS011;12312;53.362;-1.518;2022-10-16T08:32:43;6.93;;;0.90;;
24153;SDS011;12312;53.362;-1.518;2022-10-16T08:35:09;7.82;;;1.20;;
24153;SDS011;12312;53.362;-1.518;2022-10-16T08:37:36;5.20;;;1.33;;
24153;SDS011;12312;53.362;-1.518;2022-10-16T08:40:03;4.30;;;1.27;;
24153;SDS011;12312;53.362;-1.518;2022-10-16T08:50:44;5.05;;;1.20;;
24153;SDS011;12312;53.362;-1.518;2022-10-16T08:53:15;6.22;;;1.00;;
24153;SDS011;12312;53.362;-1.518;2022-10-16T08:55:53;4.22;;;0.82;;
24153;SDS011;12312;53.362;-1.518;2022-10-16T09:00:51;8.50;;;1.20;;
24153;SDS011;12312;53.362;-1.518;2022-10-16T09:14:57;6.75;;;1.00;;
24153;SDS011;12312;53.362;-1.518;2022-10-16T09:23:19;5.95;;;1.00;;
24153;SDS011;12312;53.362;-1.518;2022-10-16T09:25:51;7.88;;;1.10;;
24153;SDS011;12312;53.362;-1.518;2022-10-16T09:28:20;7.25;;;1.10;;
24153;SDS011;12312;53.362;-1.518;2022-10-16T09:30:46;7.82;;;1.00;;
24153;SDS011;12312;53.362;-1.518;2022-10-16T09:33:17;9.18;;;1.48;;
24153;SDS011;12312;53.362;-1.518;2022-10-16T09:35:50;5.28;;;1.08;;
24153;SDS011;12312;53.362;-1.518;2022-10-16T09:38:26;5.18;;;0.77;;
24153;SDS011;12312;53.362;-1.518;2022-10-16T09:40:57;5.97;;;0.95;;
24153;SDS011;12312;53.362;-1.518;2022-10-16T09:43:29;4.18;;;1.02;;
24153;SDS011;12312;53.362;-1.518;2022-10-16T09:46:07;4.38;;;0.70;;
24153;SDS011;12312;53.362;-1.518;2022-10-16T09:49:04;6.50;;;1.40;;
24153;SDS011;12312;53.362;-1.518;2022-10-16T09:51:46;4.88;;;1.02;;
24153;SDS011;12312;53.362;-1.518;2022-10-16T09:54:17;2.90;;;0.82;;
24153;SDS011;12312;53.362;-1.518;2022-10-16T09:56:47;4.93;;;0.98;;
24153;SDS011;12312;53.362;-1.518;2022-10-16T09:59:19;4.90;;;0.98;;
24153;SDS011;12312;53.362;-1.518;2022-10-16T10:01:55;3.90;;;0.77;;
24153;SDS011;12312;53.362;-1.518;2022-10-16T10:04:22;3.10;;;1.00;;
24153;SDS011;12312;53.362;-1.518;2022-10-16T10:06:52;2.80;;;0.73;;
24153;SDS011;12312;53.362;-1.518;2022-10-16T10:09:31;4.00;;;0.80;;
24153;SDS011;12312;53.362;-1.518;2022-10-16T10:12:03;4.90;;;0.88;;
24153;SDS011;12312;53.362;-1.518;2022-10-16T10:14:47;3.17;;;0.70;;
24153;SDS011;12312;53.362;-1.518;2022-10-16T10:17:21;6.82;;;0.65;;
24153;SDS011;12312;53.362;-1.518;2022-10-16T10:20:18;10.55;;;1.20;;
24153;SDS011;12312;53.362;-1.518;2022-10-16T10:22:53;3.47;;;0.93;;
24153;SDS011;12312;53.362;-1.518;2022-10-16T10:38:58;5.15;;;1.10;;
24153;SDS011;12312;53.362;-1.518;2022-10-16T10:44:08;8.20;;;1.20;;
24153;SDS011;12312;53.362;-1.518;2022-10-16T10:46:51;2.58;;;1.10;;
24153;SDS011;12312;53.362;-1.518;2022-10-16T11:00:27;4.65;;;1.23;;
24153;SDS011;12312;53.362;-1.518;2022-10-16T11:03:05;4.00;;;0.75;;
24153;SDS011;12312;53.362;-1.518;2022-10-16T11:05:56;4.40;;;0.88;;
24153;SDS011;12312;53.362;-1.518;2022-10-16T11:08:37;3.97;;;0.90;;
24153;SDS011;12312;53.362;-1.518;2022-10-16T11:13:48;4.70;;;0.95;;
24153;SDS011;12312;53.362;-1.518;2022-10-16T11:16:26;4.18;;;1.00;;
24153;SDS011;12312;53.362;-1.518;2022-10-16T11:18:57;5.32;;;0.80;;
24153;SDS011;12312;53.362;-1.518;2022-10-16T11:21:28;4.18;;;0.60;;
24153;SDS011;12312;53.362;-1.518;2022-10-16T11:24:03;4.15;;;0.80;;
24153;SDS011;12312;53.362;-1.518;2022-10-16T11:26:35;3.80;;;0.90;;
24153;SDS011;12312;53.362;-1.518;2022-10-16T11:29:10;2.25;;;0.60;;
24153;SDS011;12312;53.362;-1.518;2022-10-16T11:31:46;2.15;;;0.60;;
24153;SDS011;12312;53.362;-1.518;2022-10-16T11:34:24;4.07;;;0.70;;
24153;SDS011;12312;53.362;-1.518;2022-10-16T11:36:57;2.70;;;0.60;;
24153;SDS011;12312;53.362;-1.518;2022-10-16T11:39:33;1.58;;;0.40;;
24153;SDS011;12312;53.362;-1.518;2022-10-16T11:42:10;2.30;;;0.50;;
24153;SDS011;12312;53.362;-1.518;2022-10-16T11:47:45;3.75;;;0.73;;
24153;SDS011;12312;53.362;-1.518;2022-10-16T11:50:23;3.13;;;0.60;;
24153;SDS011;12312;53.362;-1.518;2022-10-16T11:53:53;2.17;;;0.80;;
24153;SDS011;12312;53.362;-1.518;2022-10-16T11:56:15;3.63;;;0.85;;
24153;SDS011;12312;53.362;-1.518;2022-10-16T11:59:05;3.28;;;0.80;;
24153;SDS011;12312;53.362;-1.518;2022-10-16T12:01:53;2.50;;;0.57;;
24153;SDS011;12312;53.362;-1.518;2022-10-16T12:04:50;3.00;;;0.65;;
24153;SDS011;12312;53.362;-1.518;2022-10-16T12:07:41;4.63;;;0.80;;
24153;SDS011;12312;53.362;-1.518;2022-10-16T12:10:27;3.78;;;0.70;;
24153;SDS011;12312;53.362;-1.518;2022-10-16T12:12:54;2.63;;;0.50;;
24153;SDS011;12312;53.362;-1.518;2022-10-16T12:15:23;1.48;;;0.60;;
24153;SDS011;12312;53.362;-1.518;2022-10-16T12:17:51;2.42;;;0.60;;
24153;SDS011;12312;53.362;-1.518;2022-10-16T12:22:49;2.85;;;0.47;;
24153;SDS011;12312;53.362;-1.518;2022-10-16T12:30:40;4.35;;;0.60;;
24153;SDS011;12312;53.362;-1.518;2022-10-16T12:33:20;2.05;;;0.40;;
24153;SDS011;12312;53.362;-1.518;2022-10-16T12:35:53;2.72;;;0.70;;
24153;SDS011;12312;53.362;-1.518;2022-10-16T12:38:20;2.08;;;0.47;;
24153;SDS011;12312;53.362;-1.518;2022-10-16T12:41:00;2.08;;;0.60;;
24153;SDS011;12312;53.362;-1.518;2022-10-16T12:48:40;3.53;;;1.10;;
24153;SDS011;12312;53.362;-1.518;2022-10-16T12:51:09;3.60;;;1.05;;
24153;SDS011;12312;53.362;-1.518;2022-10-16T12:53:46;2.88;;;0.55;;
24153;SDS011;12312;53.362;-1.518;2022-10-16T12:56:24;2.38;;;0.65;;
24153;SDS011;12312;53.362;-1.518;2022-10-16T12:59:24;1.95;;;0.60;;
24153;SDS011;12312;53.362;-1.518;2022-10-16T13:02:29;2.08;;;0.60;;
24153;SDS011;12312;53.362;-1.518;2022-10-16T13:05:25;4.13;;;0.77;;
24153;SDS011;12312;53.362;-1.518;2022-10-16T13:18:59;5.40;;;0.80;;
24153;SDS011;12312;53.362;-1.518;2022-10-16T13:21:43;4.82;;;0.68;;
24153;SDS011;12312;53.362;-1.518;2022-10-16T13:29:47;4.05;;;0.90;;
24153;SDS011;12312;53.362;-1.518;2022-10-16T13:32:18;4.07;;;0.52;;
24153;SDS011;12312;53.362;-1.518;2022-10-16T13:34:45;3.85;;;1.27;;
24153;SDS011;12312;53.362;-1.518;2022-10-16T13:37:20;3.38;;;0.70;;
24153;SDS011;12312;53.362;-1.518;2022-10-16T13:39:48;4.53;;;0.70;;
24153;SDS011;12312;53.362;-1.518;2022-10-16T13:44:49;4.63;;;0.73;;
24153;SDS011;12312;53.362;-1.518;2022-10-16T13:47:17;6.60;;;0.73;;
24153;SDS011;12312;53.362;-1.518;2022-10-16T13:50:02;4.72;;;1.15;;
24153;SDS011;12312;53.362;-1.518;2022-10-16T13:52:30;6.00;;;1.30;;
24153;SDS011;12312;53.362;-1.518;2022-10-16T13:54:56;4.00;;;0.80;;
24153;SDS011;12312;53.362;-1.518;2022-10-16T13:57:22;5.05;;;1.30;;
24153;SDS011;12312;53.362;-1.518;2022-10-16T13:59:50;2.03;;;0.90;;
24153;SDS011;12312;53.362;-1.518;2022-10-16T14:04:45;4.50;;;0.98;;
24153;SDS011;12312;53.362;-1.518;2022-10-16T14:07:14;3.30;;;0.70;;
24153;SDS011;12312;53.362;-1.518;2022-10-16T14:09:49;2.45;;;1.17;;
24153;SDS011;12312;53.362;-1.518;2022-10-16T14:12:16;4.10;;;1.27;;
24153;SDS011;12312;53.362;-1.518;2022-10-16T14:14:46;5.43;;;0.80;;
24153;SDS011;12312;53.362;-1.518;2022-10-16T14:17:30;6.97;;;1.33;;
24153;SDS011;12312;53.362;-1.518;2022-10-16T14:19:59;2.50;;;1.20;;
24153;SDS011;12312;53.362;-1.518;2022-10-16T14:22:32;5.60;;;1.08;;
24153;SDS011;12312;53.362;-1.518;2022-10-16T14:25:27;6.88;;;1.73;;
24153;SDS011;12312;53.362;-1.518;2022-10-16T14:27:59;5.15;;;2.08;;
24153;SDS011;12312;53.362;-1.518;2022-10-16T14:30:27;2.75;;;1.10;;
24153;SDS011;12312;53.362;-1.518;2022-10-16T14:32:55;3.47;;;0.88;;
24153;SDS011;12312;53.362;-1.518;2022-10-16T14:35:27;3.15;;;0.90;;
24153;SDS011;12312;53.362;-1.518;2022-10-16T14:38:04;3.97;;;0.90;;
24153;SDS011;12312;53.362;-1.518;2022-10-16T14:40:31;4.45;;;1.20;;
24153;SDS011;12312;53.362;-1.518;2022-10-16T14:43:00;6.07;;;1.30;;
24153;SDS011;12312;53.362;-1.518;2022-10-16T14:45:28;5.07;;;1.13;;
24153;SDS011;12312;53.362;-1.518;2022-10-16T14:48:04;4.07;;;0.77;;
24153;SDS011;12312;53.362;-1.518;2022-10-16T14:50:42;2.85;;;0.70;;
24153;SDS011;12312;53.362;-1.518;2022-10-16T14:53:12;4.30;;;0.73;;
24153;SDS011;12312;53.362;-1.518;2022-10-16T14:55:39;3.22;;;1.05;;
24153;SDS011;12312;53.362;-1.518;2022-10-16T14:58:09;3.28;;;0.70;;
24153;SDS011;12312;53.362;-1.518;2022-10-16T15:00:50;3.13;;;0.65;;
24153;SDS011;12312;53.362;-1.518;2022-10-16T15:03:15;3.10;;;0.80;;
24153;SDS011;12312;53.362;-1.518;2022-10-16T15:05:41;4.25;;;0.80;;
24153;SDS011;12312;53.362;-1.518;2022-10-16T15:08:07;2.72;;;1.10;;
24153;SDS011;12312;53.362;-1.518;2022-10-16T15:10:35;5.28;;;1.60;;
24153;SDS011;12312;53.362;-1.518;2022-10-16T15:13:04;5.35;;;2.60;;
24153;SDS011;12312;53.362;-1.518;2022-10-16T15:15:33;4.25;;;1.65;;
24153;SDS011;12312;53.362;-1.518;2022-10-16T15:18:08;6.75;;;2.17;;
24153;SDS011;12312;53.362;-1.518;2022-10-16T15:20:35;7.13;;;2.17;;
24153;SDS011;12312;53.362;-1.518;2022-10-16T15:23:09;9.88;;;3.17;;
24153;SDS011;12312;53.362;-1.518;2022-10-16T15:25:41;9.60;;;3.60;;
24153;SDS011;12312;53.362;-1.518;2022-10-16T15:28:16;8.07;;;3.10;;
24153;SDS011;12312;53.362;-1.518;2022-10-16T15:30:42;4.88;;;1.83;;
24153;SDS011;12312;53.362;-1.518;2022-10-16T15:33:14;5.70;;;2.22;;
24153;SDS011;12312;53.362;-1.518;2022-10-16T15:35:47;9.80;;;2.20;;
24153;SDS011;12312;53.362;-1.518;2022-10-16T15:38:17;6.45;;;2.00;;
24153;SDS011;12312;53.362;-1.518;2022-10-16T15:40:47;7.13;;;2.42;;
24153;SDS011;12312;53.362;-1.518;2022-10-16T15:43:14;4.40;;;1.52;;
24153;SDS011;12312;53.362;-1.518;2022-10-16T15:45:40;7.18;;;1.30;;
24153;SDS011;12312;53.362;-1.518;2022-10-16T15:48:06;3.78;;;1.23;;
24153;SDS011;12312;53.362;-1.518;2022-10-16T15:50:31;7.38;;;1.60;;
24153;SDS011;12312;53.362;-1.518;2022-10-16T15:52:57;7.22;;;1.40;;
24153;SDS011;12312;53.362;-1.518;2022-10-16T15:55:23;4.32;;;1.60;;
24153;SDS011;12312;53.362;-1.518;2022-10-16T15:57:49;6.20;;;1.35;;
24153;SDS011;12312;53.362;-1.518;2022-10-16T16:00:17;3.63;;;1.33;;
24153;SDS011;12312;53.362;-1.518;2022-10-16T16:02:51;4.53;;;1.50;;
24153;SDS011;12312;53.362;-1.518;2022-10-16T16:05:19;4.63;;;1.33;;
24153;SDS011;12312;53.362;-1.518;2022-10-16T16:07:45;3.05;;;1.30;;
24153;SDS011;12312;53.362;-1.518;2022-10-16T16:10:11;4.85;;;1.50;;
24153;SDS011;12312;53.362;-1.518;2022-10-16T16:12:37;3.47;;;1.20;;
24153;SDS011;12312;53.362;-1.518;2022-10-16T16:15:07;6.88;;;1.33;;
24153;SDS011;12312;53.362;-1.518;2022-10-16T16:17:34;7.22;;;1.40;;
24153;SDS011;12312;53.362;-1.518;2022-10-16T16:20:03;4.22;;;1.30;;
24153;SDS011;12312;53.362;-1.518;2022-10-16T16:22:31;5.35;;;1.70;;
24153;SDS011;12312;53.362;-1.518;2022-10-16T16:24:57;5.32;;;1.52;;
24153;SDS011;12312;53.362;-1.518;2022-10-16T16:27:22;5.15;;;1.48;;
24153;SDS011;12312;53.362;-1.518;2022-10-16T16:29:50;5.60;;;1.35;;
24153;SDS011;12312;53.362;-1.518;2022-10-16T16:32:15;6.03;;;2.20;;
24153;SDS011;12312;53.362;-1.518;2022-10-16T16:34:41;6.15;;;1.63;;
24153;SDS011;12312;53.362;-1.518;2022-10-16T16:37:06;5.72;;;2.33;;
24153;SDS011;12312;53.362;-1.518;2022-10-16T16:39:32;8.00;;;2.25;;
24153;SDS011;12312;53.362;-1.518;2022-10-16T16:42:01;6.13;;;1.92;;
24153;SDS011;12312;53.362;-1.518;2022-10-16T16:44:30;10.90;;;4.03;;
24153;SDS011;12312;53.362;-1.518;2022-10-16T16:46:56;12.57;;;5.13;;
24153;SDS011;12312;53.362;-1.518;2022-10-16T16:49:21;7.80;;;4.05;;
24153;SDS011;12312;53.362;-1.518;2022-10-16T16:51:47;9.20;;;4.35;;